Current Weather

Chicago Midway Intl

Chicago, Illinois (KMDW)

Report from: Wednesday, September 28, 2022 3:53 AM CDT
Current time: Wednesday, September 28, 2022 4:46 AM CDT

Nearby weather
Weather history
Weather forecast

Temperature10.6°C (51.1°F)
Dew point5.0°C (41.0°F)
Winds 10 kts (5.1 m/s, 11.5 mph) North-Northwest (330°)
Visibility10 mi. (16.1 km)
Clouds Few clouds 1,800 ft. (549 m)
Ceiling: Broken clouds 6,000 ft. (1,829 m)
Altimeter30.32 in.Hg (1027 mB)
Relative humidity68 %
Density altitude-853 ft. (-260 m)
Sea-level pressure102.7 kPa (1027 mB, 30.32 in.Hg)
Remarks Automated weather observing station with precipitation discriminator
Pressure rising more quickly
Flight conditions Visual Meteorological Conditions
Raw dataKMDW 280853Z 33010KT 10SM FEW018 BKN060 11/05 A3032 RMK AO2 SLP267 T01060050 53009
An error has occurred. This application may no longer respond until reloaded. Reload 🗙